Time;durP1;ratioP1;P1;durP2;ratioP2;P2;SDS_P1;SDS_P2;PMS_P1;PMS_P2;Temp;Humidity;BMP_temperature;BMP_pressure;BME280_temperature;BME280_humidity;BME280_pressure;Samples;Min_cycle;Max_cycle;Signal;HPM_P1;HPM_P2
2023/04/04 00:00:27;;;;;;;4.10;1.30;;;;;;;1.01;53.56;100884.06;1816807;78;21137;-66
2023/04/04 00:02:55;;;;;;;3.80;1.00;;;;;;;1.00;53.24;100872.03;1819061;78;20965;-66
2023/04/04 00:05:22;;;;;;;4.10;0.95;;;;;;;0.98;53.52;100876.33;1821136;78;21120;-64
2023/04/04 00:07:49;;;;;;;6.80;1.52;;;;;;;1.02;53.53;100878.06;1823911;78;20989;-66
2023/04/04 00:10:15;;;;;;;3.90;1.05;;;;;;;0.99;53.43;100865.17;1819760;78;21066;-67
2023/04/04 00:12:42;;;;;;;3.35;0.72;;;;;;;1.00;53.39;100856.60;1820794;77;21138;-66
2023/04/04 00:15:10;;;;;;;4.35;1.00;;;;;;;1.01;53.38;100858.34;1819766;77;21061;-66
2023/04/04 00:17:36;;;;;;;8.90;1.12;;;;;;;1.01;53.37;100860.92;1812561;77;20996;-65
2023/04/04 00:20:03;;;;;;;2.90;0.80;;;;;;;1.02;53.29;100853.63;1814238;78;21025;-65
2023/04/04 00:22:30;;;;;;;2.00;0.98;;;;;;;1.01;53.31;100850.63;1821415;78;21041;-65
2023/04/04 00:24:56;;;;;;;3.42;1.20;;;;;;;1.02;53.28;100854.91;1824579;78;21089;-64
2023/04/04 00:27:23;;;;;;;3.20;1.07;;;;;;;1.06;53.43;100847.66;1816042;78;21095;-66
2023/04/04 00:29:49;;;;;;;1.98;1.02;;;;;;;1.09;53.42;100846.82;1818458;78;21045;-66
2023/04/04 00:32:15;;;;;;;3.87;1.17;;;;;;;1.13;53.45;100845.16;1822157;78;20977;-65
2023/04/04 00:34:42;;;;;;;4.70;1.00;;;;;;;1.09;53.37;100841.28;1818667;78;21115;-65
2023/04/04 00:37:11;;;;;;;4.30;1.00;;;;;;;1.08;53.39;100840.82;1823290;77;20968;-66
2023/04/04 00:39:36;;;;;;;2.92;0.90;;;;;;;1.10;53.45;100839.56;1808449;77;21002;-65
2023/04/04 00:42:03;;;;;;;3.85;1.02;;;;;;;1.09;53.38;100838.70;1815729;77;21515;-66
2023/04/04 00:44:31;;;;;;;4.47;1.30;;;;;;;1.08;53.40;100835.67;1817378;77;20986;-66
2023/04/04 00:46:58;;;;;;;1.95;1.10;;;;;;;1.09;53.38;100835.25;1814759;77;20950;-64
2023/04/04 00:49:24;;;;;;;1.95;0.90;;;;;;;1.16;53.52;100833.61;1819308;77;21120;-66
2023/04/04 00:51:50;;;;;;;3.95;1.35;;;;;;;1.18;53.47;100821.20;1820780;77;21509;-64
2023/04/04 00:54:16;;;;;;;2.67;1.12;;;;;;;1.23;53.58;100827.66;1825511;77;21483;-66
2023/04/04 00:56:43;;;;;;;2.55;1.02;;;;;;;1.28;53.45;100825.98;1822612;77;20959;-66
2023/04/04 00:59:09;;;;;;;1.87;1.10;;;;;;;1.27;53.45;100829.42;1820714;77;21088;-66
2023/04/04 01:01:36;;;;;;;4.58;1.20;;;;;;;1.27;53.44;100821.70;1819639;77;20985;-65
2023/04/04 01:04:02;;;;;;;2.50;1.10;;;;;;;1.25;53.44;100822.96;1823835;77;21109;-66
2023/04/04 01:06:31;;;;;;;4.45;1.60;;;;;;;1.22;53.34;100823.37;1820013;78;21056;-66
2023/04/04 01:08:58;;;;;;;6.92;1.72;;;;;;;1.17;53.47;100816.03;1812975;77;20954;-65
2023/04/04 01:11:27;;;;;;;3.27;1.10;;;;;;;1.15;53.51;100816.03;1817882;77;21122;-65
2023/04/04 01:13:53;;;;;;;3.20;1.35;;;;;;;1.15;53.47;100813.86;1820402;78;21093;-64
2023/04/04 01:16:20;;;;;;;3.10;1.15;;;;;;;1.09;53.47;100812.98;1817447;77;20974;-66
2023/04/04 01:18:48;;;;;;;2.30;1.12;;;;;;;1.04;53.52;100812.08;1812807;77;20982;-65
2023/04/04 01:21:20;;;;;;;6.50;0.93;;;;;;;1.00;53.39;100810.30;1819773;77;21011;-66
2023/04/04 01:24:00;;;;;;;3.27;1.35;;;;;;;0.96;53.47;100804.72;1812510;77;21093;-66
2023/04/04 01:26:29;;;;;;;2.45;0.98;;;;;;;0.91;53.42;100808.95;1817016;78;21112;-64
2023/04/04 01:28:57;;;;;;;7.40;1.05;;;;;;;0.88;53.50;100799.92;1818030;77;21084;-65
2023/04/04 01:31:30;;;;;;;;;;;;;;;0.87;53.45;100804.64;1826654;77;20983;-66
2023/04/04 01:34:18;;;;;;;5.53;1.00;;;;;;;0.86;53.45;100799.03;1819780;77;20153;-65
2023/04/04 01:37:03;;;;;;;3.10;1.17;;;;;;;0.83;53.35;100794.72;1818203;77;21721;-64
2023/04/04 01:39:44;;;;;;;3.35;1.10;;;;;;;0.74;53.34;100796.36;1823152;77;20958;-65
2023/04/04 01:42:12;;;;;;;7.10;1.17;;;;;;;0.66;53.31;100785.98;1821979;78;20966;-66
2023/04/04 01:44:38;;;;;;;;;;;;;;;0.56;53.31;100790.19;1815342;77;20992;-64
2023/04/04 01:47:08;;;;;;;2.75;1.00;;;;;;;0.44;53.27;100787.47;1821554;78;20164;-66
2023/04/04 01:49:34;;;;;;;2.42;0.98;;;;;;;0.29;53.22;100787.30;1819477;78;21473;-65
2023/04/04 01:52:01;;;;;;;3.00;1.00;;;;;;;0.16;53.25;100788.86;1819305;78;20955;-66
2023/04/04 01:54:27;;;;;;;5.70;1.07;;;;;;;0.06;53.25;100784.05;1814300;78;20985;-65
2023/04/04 01:56:53;;;;;;;6.53;1.02;;;;;;;-0.09;53.39;100777.41;1815149;78;21011;-66
2023/04/04 01:59:20;;;;;;;2.17;0.80;;;;;;;-0.19;53.33;100778.16;1814446;78;20976;-65
2023/04/04 02:01:46;;;;;;;3.85;0.78;;;;;;;-0.31;53.36;100767.27;1820039;78;21506;-65
2023/04/04 02:04:14;;;;;;;2.33;0.80;;;;;;;-0.40;53.34;100774.42;1815576;78;21000;-65
2023/04/04 02:06:40;;;;;;;2.08;1.02;;;;;;;-0.47;53.46;100767.50;1820490;78;21570;-65
2023/04/04 02:09:06;;;;;;;3.92;1.47;;;;;;;-0.54;53.41;100771.66;1823401;78;21021;-65
2023/04/04 02:11:33;;;;;;;3.92;1.27;;;;;;;-0.59;53.45;100769.87;1827667;78;21057;-65
2023/04/04 02:13:59;;;;;;;2.05;0.98;;;;;;;-0.66;53.42;100764.22;1816947;77;21096;-65
2023/04/04 02:16:25;;;;;;;3.33;1.20;;;;;;;-0.74;53.46;100763.67;1817549;77;21060;-66
2023/04/04 02:18:54;;;;;;;4.40;1.20;;;;;;;-0.78;53.63;100761.05;1821599;77;21509;-64
2023/04/04 02:21:21;;;;;;;5.45;1.37;;;;;;;-0.86;53.52;100760.93;1815097;77;21154;-65
2023/04/04 02:23:47;;;;;;;4.80;1.47;;;;;;;-0.91;53.55;100765.11;1808819;77;21007;-65
2023/04/04 02:26:13;;;;;;;3.12;1.20;;;;;;;-0.95;53.63;100763.35;1814816;77;20972;-64
2023/04/04 02:28:40;;;;;;;5.15;1.27;;;;;;;-0.98;53.65;100763.27;1817392;78;21002;-64
2023/04/04 02:31:06;;;;;;;4.95;1.25;;;;;;;-1.03;53.67;100764.92;1824338;77;21034;-66
2023/04/04 02:33:38;;;;;;;3.05;1.30;;;;;;;-1.04;53.77;100765.74;1818259;77;21417;-66
2023/04/04 02:36:05;;;;;;;3.17;1.10;;;;;;;-1.07;53.75;100758.86;1820948;77;21151;-66
2023/04/04 02:38:33;;;;;;;3.52;1.22;;;;;;;-1.04;53.86;100752.92;1820477;77;21061;-65
2023/04/04 02:41:03;;;;;;;2.90;1.22;;;;;;;-1.04;53.89;100758.05;1811453;77;20978;-65
2023/04/04 02:43:29;;;;;;;2.70;1.10;;;;;;;-0.99;54.02;100756.44;1814084;77;21001;-65
2023/04/04 02:45:55;;;;;;;1.87;0.93;;;;;;;-0.94;54.05;100747.12;1815513;78;21094;-65
2023/04/04 02:48:24;;;;;;;4.12;1.00;;;;;;;-0.91;54.28;100748.45;1817171;78;21101;-65
2023/04/04 02:50:51;;;;;;;4.62;1.22;;;;;;;-0.89;54.19;100746.78;1821491;77;21438;-65
2023/04/04 02:53:19;;;;;;;2.55;0.88;;;;;;;-0.87;54.30;100747.64;1815600;77;21074;-65
2023/04/04 02:55:47;;;;;;;1.92;0.93;;;;;;;-0.84;54.20;100743.88;1825775;77;21802;-65
2023/04/04 02:58:16;;;;;;;3.95;1.10;;;;;;;-0.79;54.31;100747.34;1798567;78;21015;-65
2023/04/04 03:00:42;;;;;;;5.53;1.07;;;;;;;-0.74;54.23;100744.44;1815208;78;21077;-65
2023/04/04 03:03:08;;;;;;;5.30;1.10;;;;;;;-0.68;54.45;100741.95;1811867;78;20957;-66
2023/04/04 03:05:34;;;;;;;3.58;0.90;;;;;;;-0.59;54.34;100735.23;1812579;77;21608;-64
2023/04/04 03:08:05;;;;;;;3.00;1.12;;;;;;;-0.53;54.43;100739.20;1816000;77;21045;-65
2023/04/04 03:10:29;;;;;;;3.08;1.20;;;;;;;-0.46;54.71;100735.86;1817524;77;21620;-66
2023/04/04 03:12:56;;;;;;;2.75;1.10;;;;;;;-0.40;54.44;100730.80;1822084;77;21449;-66
2023/04/04 03:15:24;;;;;;;3.55;1.42;;;;;;;-0.37;54.57;100725.70;1812568;77;21048;-66
2023/04/04 03:17:51;;;;;;;4.65;0.95;;;;;;;-0.32;54.46;100729.20;1815357;77;21041;-65
2023/04/04 03:20:17;;;;;;;6.40;2.15;;;;;;;-0.27;54.54;100730.13;1817272;78;21080;-66
2023/04/04 03:22:43;;;;;;;3.05;1.98;;;;;;;-0.23;54.56;100729.74;1814583;77;20962;-66
2023/04/04 03:25:10;;;;;;;4.33;1.40;;;;;;;-0.21;54.59;100737.05;1824668;78;21501;-65
2023/04/04 03:27:38;;;;;;;5.70;1.35;;;;;;;-0.17;54.76;100731.52;1812573;77;20962;-66
2023/04/04 03:30:06;;;;;;;3.30;1.35;;;;;;;-0.18;54.63;100731.09;1813833;77;21040;-66
2023/04/04 03:32:33;;;;;;;2.30;1.20;;;;;;;-0.26;54.50;100729.28;1808267;77;20947;-65
2023/04/04 03:34:59;;;;;;;4.05;1.30;;;;;;;-0.26;54.66;100726.71;1824548;77;20970;-66
2023/04/04 03:37:25;;;;;;;5.55;1.75;;;;;;;-0.26;54.65;100729.28;1819301;77;21080;-65
2023/04/04 03:39:51;;;;;;;4.83;1.25;;;;;;;-0.29;54.70;100725.81;1821465;78;21115;-66
2023/04/04 03:42:18;;;;;;;2.83;1.30;;;;;;;-0.32;54.75;100724.07;1821838;77;21018;-64
2023/04/04 03:44:44;;;;;;;1.85;0.82;;;;;;;-0.37;54.72;100719.72;1820848;78;21493;-66
2023/04/04 03:47:10;;;;;;;2.62;1.15;;;;;;;-0.47;54.72;100712.34;1812001;77;21041;-65
2023/04/04 03:49:36;;;;;;;3.65;1.20;;;;;;;-0.56;54.77;100717.32;1817982;77;21057;-64
2023/04/04 03:52:03;;;;;;;5.05;1.10;;;;;;;-0.69;54.83;100708.19;1813388;77;21026;-66
2023/04/04 03:54:29;;;;;;;3.55;1.27;;;;;;;-0.75;54.95;100708.09;1810153;77;21103;-64
2023/04/04 03:56:56;;;;;;;4.58;1.00;;;;;;;-0.82;55.06;100716.53;1818572;78;21007;-65
2023/04/04 03:59:23;;;;;;;3.95;1.22;;;;;;;-0.89;54.99;100709.60;1825327;77;20970;-64
2023/04/04 04:01:49;;;;;;;6.10;1.35;;;;;;;-0.98;55.04;100707.77;1814542;77;21105;-66
2023/04/04 04:04:15;;;;;;;5.22;1.90;;;;;;;-1.04;55.11;100709.34;1824887;77;21076;-65
2023/04/04 04:06:42;;;;;;;5.08;1.30;;;;;;;-1.06;55.15;100714.89;1815981;77;21045;-65
2023/04/04 04:09:11;;;;;;;2.77;1.15;;;;;;;-1.11;55.32;100712.67;1813902;77;21519;-64
2023/04/04 04:11:37;;;;;;;4.17;1.98;;;;;;;-1.15;55.24;100704.94;1815602;77;21530;-66
2023/04/04 04:14:04;;;;;;;2.90;1.20;;;;;;;-1.20;55.33;100706.56;1822816;77;20962;-65
2023/04/04 04:16:31;;;;;;;4.42;1.57;;;;;;;-1.26;55.29;100705.58;1820210;77;21056;-66
2023/04/04 04:18:58;;;;;;;9.13;1.90;;;;;;;-1.29;55.63;100703.82;1813506;77;21521;-66
2023/04/04 04:21:27;;;;;;;6.92;1.30;;;;;;;-1.32;55.52;100703.77;1820946;77;21603;-65
2023/04/04 04:23:53;;;;;;;4.15;1.70;;;;;;;-1.32;55.49;100702.91;1819061;78;20958;-64
2023/04/04 04:26:20;;;;;;;6.40;1.50;;;;;;;-1.34;55.59;100696.50;1821926;78;21038;-65
2023/04/04 04:28:49;;;;;;;6.10;2.55;;;;;;;-1.35;55.70;100701.16;1813973;78;21053;-64
2023/04/04 04:31:18;;;;;;;7.47;2.12;;;;;;;-1.35;55.69;100696.03;1820864;77;21171;-64
2023/04/04 04:33:44;;;;;;;4.25;1.95;;;;;;;-1.32;55.92;100702.91;1820764;77;20946;-63
2023/04/04 04:36:11;;;;;;;8.10;1.92;;;;;;;-1.28;55.90;100695.31;1812390;77;20989;-62
2023/04/04 04:38:37;;;;;;;6.50;2.33;;;;;;;-1.25;55.98;100692.80;1821593;78;21571;-62
2023/04/04 04:41:03;;;;;;;5.40;1.95;;;;;;;-1.26;55.84;100695.33;1813925;77;21183;-63
2023/04/04 04:43:30;;;;;;;6.37;1.67;;;;;;;-1.26;55.88;100703.91;1813614;77;20941;-63
2023/04/04 04:45:56;;;;;;;8.00;2.83;;;;;;;-1.23;55.93;100696.26;1819785;77;20997;-63
2023/04/04 04:48:22;;;;;;;5.12;2.42;;;;;;;-1.14;56.05;100701.52;1821072;77;21039;-63
2023/04/04 04:50:49;;;;;;;3.52;1.87;;;;;;;-1.01;56.45;100699.14;1823501;77;21037;-62
2023/04/04 04:53:22;;;;;;;9.43;1.80;;;;;;;-0.86;56.16;100699.81;1815229;77;20978;-63
2023/04/04 04:55:45;;;;;;;3.77;2.12;;;;;;;-0.75;56.25;100699.13;1815252;77;21694;-62
2023/04/04 04:58:21;;;;;;;4.45;1.75;;;;;;;-0.62;56.18;100696.72;1813791;77;21092;-63
2023/04/04 05:00:46;;;;;;;4.03;1.60;;;;;;;-0.53;56.20;100699.01;1813077;78;21554;-63
2023/04/04 05:03:16;;;;;;;4.45;2.90;;;;;;;-0.45;56.14;100704.22;1811130;78;21021;-63
2023/04/04 05:05:46;;;;;;;5.47;2.10;;;;;;;-0.36;56.20;100712.06;1813286;77;21057;-63
2023/04/04 05:08:13;;;;;;;3.37;1.98;;;;;;;-0.18;56.36;100707.99;1821533;78;21080;-62
2023/04/04 05:10:39;;;;;;;4.73;2.20;;;;;;;0.04;56.48;100707.41;1816078;77;20938;-61
2023/04/04 05:13:06;;;;;;;7.43;2.70;;;;;;;0.27;56.64;100701.65;1817377;77;21773;-62
2023/04/04 05:15:35;;;;;;;6.25;2.45;;;;;;;0.51;56.55;100696.76;1812721;77;21030;-62
2023/04/04 05:18:01;;;;;;;5.03;2.33;;;;;;;0.72;56.45;100696.08;1815637;77;21493;-62
2023/04/04 05:20:32;;;;;;;6.33;2.60;;;;;;;0.83;56.31;100691.02;1819816;78;21072;-62
2023/04/04 05:23:03;;;;;;;8.25;3.15;;;;;;;0.93;56.28;100695.40;1815985;77;21182;-63
2023/04/04 05:25:26;;;;;;;8.55;3.20;;;;;;;0.99;56.23;100697.16;1823021;77;21552;-64
2023/04/04 05:27:54;;;;;;;9.57;3.00;;;;;;;1.02;56.20;100690.31;1814838;77;21497;-63
2023/04/04 05:30:27;;;;;;;5.37;2.80;;;;;;;0.93;55.90;100703.11;1819174;77;21832;-66
2023/04/04 05:32:51;;;;;;;5.50;3.10;;;;;;;0.88;56.03;100700.50;1815499;77;20958;-65
2023/04/04 05:35:18;;;;;;;8.63;3.15;;;;;;;0.79;56.08;100704.72;1823186;77;21032;-61
2023/04/04 05:37:44;;;;;;;6.75;3.37;;;;;;;0.79;56.30;100699.58;1816948;77;21041;-63
2023/04/04 05:40:11;;;;;;;8.73;3.00;;;;;;;0.90;56.52;100704.38;1818078;77;20966;-62
2023/04/04 05:42:37;;;;;;;6.20;3.12;;;;;;;1.08;56.66;100695.50;1812801;78;21119;-62
2023/04/04 05:45:05;;;;;;;8.85;3.72;;;;;;;1.31;56.69;100687.92;1812871;77;21175;-62
2023/04/04 05:47:31;;;;;;;8.13;3.42;;;;;;;1.59;56.85;100691.08;1818301;77;21088;-63
2023/04/04 05:49:59;;;;;;;7.85;3.60;;;;;;;1.89;56.55;100692.50;1812567;77;22391;-63
2023/04/04 05:52:26;;;;;;;7.70;3.20;;;;;;;2.08;56.49;100688.27;1820869;78;21551;-62
2023/04/04 05:54:52;;;;;;;6.45;2.90;;;;;;;2.32;56.61;100692.61;1813073;78;20982;-64
2023/04/04 05:57:18;;;;;;;7.58;3.02;;;;;;;2.60;56.59;100692.64;1817872;78;21034;-62
2023/04/04 05:59:44;;;;;;;7.80;3.05;;;;;;;2.91;56.55;100689.23;1821380;77;20994;-63
2023/04/04 06:02:11;;;;;;;7.50;3.33;;;;;;;3.26;56.53;100683.16;1818790;77;21104;-62
2023/04/04 06:04:39;;;;;;;6.83;3.23;;;;;;;3.52;56.22;100687.39;1821461;77;21100;-62
2023/04/04 06:07:05;;;;;;;5.05;2.35;;;;;;;3.83;56.42;100684.70;1818377;78;21094;-63
2023/04/04 06:09:32;;;;;;;9.43;2.95;;;;;;;4.16;56.47;100676.78;1812087;77;21017;-61
2023/04/04 06:11:58;;;;;;;9.38;3.30;;;;;;;4.39;55.68;100675.77;1823054;77;20977;-65
2023/04/04 06:14:28;;;;;;;4.92;2.75;;;;;;;4.64;56.01;100678.61;1823298;77;21136;-64
2023/04/04 06:16:54;;;;;;;7.62;2.92;;;;;;;4.81;56.10;100678.91;1822813;77;21064;-61
2023/04/04 06:19:20;;;;;;;7.47;3.62;;;;;;;4.96;55.87;100673.62;1819072;77;21068;-64
2023/04/04 06:21:49;;;;;;;9.48;3.58;;;;;;;5.15;55.99;100669.98;1821370;77;21046;-63
2023/04/04 06:24:16;;;;;;;6.10;2.67;;;;;;;5.27;55.50;100665.11;1820357;78;21040;-63
2023/04/04 06:26:44;;;;;;;24.52;11.50;;;;;;;5.21;55.42;100668.18;1823708;78;21030;-66
2023/04/04 06:29:12;;;;;;;25.65;16.75;;;;;;;5.16;55.26;100676.02;1824854;77;21077;-62
2023/04/04 06:31:42;;;;;;;;;;;;;;;5.09;55.22;100659.66;1830611;77;21143;-61
2023/04/04 06:34:08;;;;;;;14.20;7.33;;;;;;;4.97;55.10;100663.67;1819504;77;20115;-61
2023/04/04 06:36:39;;;;;;;13.25;7.55;;;;;;;4.74;54.83;100661.73;1811893;77;21028;-61
2023/04/04 06:39:07;;;;;;;19.27;7.75;;;;;;;4.64;55.00;100662.23;1827117;77;21597;-61
2023/04/04 06:41:33;;;;;;;15.48;7.20;;;;;;;4.51;54.80;100657.61;1818247;77;20993;-61
2023/04/04 06:44:01;;;;;;;11.60;5.78;;;;;;;4.35;53.94;100657.28;1820130;77;21052;-61
2023/04/04 06:46:30;;;;;;;9.98;5.17;;;;;;;4.25;55.12;100657.77;1823739;77;22286;-62
2023/04/04 06:48:58;;;;;;;14.55;4.35;;;;;;;4.18;54.97;100667.30;1813429;78;21037;-61
2023/04/04 06:51:27;;;;;;;8.18;3.15;;;;;;;4.09;54.73;100669.94;1823029;77;21546;-61
2023/04/04 06:53:56;;;;;;;7.97;3.15;;;;;;;3.98;54.84;100660.09;1825093;77;21021;-63
2023/04/04 06:56:25;;;;;;;9.00;3.22;;;;;;;3.89;54.94;100658.83;1821287;77;21535;-62
2023/04/04 06:58:52;;;;;;;8.05;3.55;;;;;;;3.83;54.83;100658.87;1820153;77;21089;-62
2023/04/04 07:01:18;;;;;;;5.35;2.58;;;;;;;3.67;55.09;100666.70;1823032;78;21041;-62
2023/04/04 07:03:44;;;;;;;11.97;3.17;;;;;;;3.50;55.21;100658.13;1822909;77;21018;-63
2023/04/04 07:06:11;;;;;;;6.08;2.75;;;;;;;3.41;55.55;100660.75;1822196;77;21032;-62
2023/04/04 07:08:40;;;;;;;8.20;3.40;;;;;;;3.36;55.49;100653.00;1817483;77;21007;-61
2023/04/04 07:11:09;;;;;;;7.65;3.98;;;;;;;3.38;55.78;100650.44;1826276;77;21116;-61
2023/04/04 07:13:36;;;;;;;6.92;3.75;;;;;;;3.56;56.14;100651.67;1818746;78;21025;-62
2023/04/04 07:16:05;;;;;;;6.65;3.22;;;;;;;3.77;55.88;100645.11;1819135;77;21043;-61
2023/04/04 07:18:34;;;;;;;5.70;3.40;;;;;;;3.88;55.90;100646.79;1824172;77;21123;-61
2023/04/04 07:21:01;;;;;;;6.22;3.30;;;;;;;4.32;56.39;100643.09;1821350;78;21022;-62
2023/04/04 07:23:28;;;;;;;8.65;4.03;;;;;;;4.68;56.06;100641.95;1822002;77;20931;-62
2023/04/04 07:25:54;;;;;;;6.70;3.40;;;;;;;4.96;56.21;100644.27;1823494;77;21084;-62
2023/04/04 07:28:21;;;;;;;6.60;3.47;;;;;;;5.50;56.73;100637.66;1818748;77;21045;-62
2023/04/04 07:30:47;;;;;;;11.93;3.05;;;;;;;5.94;56.23;100631.09;1817030;78;21362;-62
2023/04/04 07:33:16;;;;;;;8.53;3.00;;;;;;;6.05;55.65;100634.39;1814925;77;21528;-62
2023/04/04 07:35:42;;;;;;;9.15;3.70;;;;;;;6.23;56.28;100628.51;1817712;78;21084;-62
2023/04/04 07:38:09;;;;;;;5.37;2.65;;;;;;;7.08;56.91;100630.55;1819989;78;20942;-62
2023/04/04 07:40:35;;;;;;;7.10;3.58;;;;;;;8.05;56.40;100630.75;1823062;77;21036;-63
2023/04/04 07:43:07;;;;;;;8.10;3.00;;;;;;;8.59;55.99;100629.52;1820267;77;21029;-61
2023/04/04 07:45:35;;;;;;;9.38;2.87;;;;;;;9.32;55.62;100621.08;1823487;77;21052;-63
2023/04/04 07:48:02;;;;;;;3.58;2.30;;;;;;;9.71;55.52;100618.23;1819428;78;21010;-62
2023/04/04 07:50:31;;;;;;;3.40;1.70;;;;;;;10.15;55.35;100611.28;1804456;77;21041;-61
2023/04/04 07:52:59;;;;;;;4.35;1.87;;;;;;;10.18;54.84;100611.17;1820413;77;21029;-61
2023/04/04 07:55:26;;;;;;;5.12;1.65;;;;;;;9.61;54.26;100603.32;1820221;77;22282;-62
2023/04/04 07:57:52;;;;;;;;;;;;;;;9.61;54.26;100603.32;1823533;77;21994;-62
2023/04/04 08:00:25;;;;;;;7.55;3.42;;;;;;;9.81;54.50;100601.88;1819133;77;20142;-63
2023/04/04 08:02:53;;;;;;;7.85;3.42;;;;;;;10.65;53.95;100594.45;1817441;77;21060;-60
2023/04/04 08:05:21;;;;;;;7.37;4.20;;;;;;;11.02;54.57;100597.11;1819398;77;20976;-62
2023/04/04 08:07:53;;;;;;;7.92;2.67;;;;;;;11.27;53.38;100591.41;1818021;77;20949;-62
2023/04/04 08:10:20;;;;;;;5.42;1.40;;;;;;;11.97;54.48;100588.38;1820811;77;21075;-62
2023/04/04 08:12:47;;;;;;;;;;;;;;;13.18;54.23;100576.30;1827529;77;21033;-61
2023/04/04 08:15:17;;;;;;;3.22;1.30;;;;;;;14.05;52.51;100576.69;1821007;78;20366;-62
2023/04/04 08:17:45;;;;;;;3.43;1.20;;;;;;;14.71;52.58;100572.63;1819324;78;20927;-60
2023/04/04 08:20:15;;;;;;;1.92;1.35;;;;;;;14.73;50.91;100563.74;1820178;78;20962;-61
2023/04/04 08:22:42;;;;;;;6.55;1.87;;;;;;;14.90;51.81;100569.45;1819964;78;20977;-63
2023/04/04 08:25:11;;;;;;;10.88;2.00;;;;;;;15.79;52.64;100573.91;1816628;77;21099;-62
2023/04/04 08:27:45;;;;;;;6.95;1.92;;;;;;;16.83;52.65;100560.97;1820960;77;21478;-62
2023/04/04 08:30:10;;;;;;;2.98;1.42;;;;;;;17.42;51.69;100556.45;1822419;77;21033;-64
2023/04/04 08:32:36;;;;;;;3.40;2.05;;;;;;;17.02;49.65;100565.52;1823286;77;21000;-63
2023/04/04 08:35:03;;;;;;;5.78;1.50;;;;;;;15.88;46.94;100562.88;1821198;78;21064;-63
2023/04/04 08:37:30;;;;;;;4.12;1.55;;;;;;;14.82;48.50;100562.42;1823052;78;21230;-64
2023/04/04 08:39:56;;;;;;;4.20;1.60;;;;;;;13.68;48.39;100566.25;1825059;78;21040;-64
2023/04/04 08:42:35;;;;;;;4.50;1.10;;;;;;;12.70;48.71;100566.19;1825386;77;21399;-62
2023/04/04 08:45:06;;;;;;;3.15;1.00;;;;;;;11.79;47.84;100569.84;1822506;77;20985;-62
2023/04/04 08:47:36;;;;;;;3.00;1.40;;;;;;;11.22;46.11;100571.11;1822785;77;21041;-61
2023/04/04 08:50:08;;;;;;;5.92;1.75;;;;;;;10.28;47.11;100576.09;1818681;77;21065;-60
2023/04/04 08:52:36;;;;;;;2.37;1.15;;;;;;;9.36;47.09;100576.25;1814012;77;21077;-61
2023/04/04 08:55:05;;;;;;;2.95;1.02;;;;;;;8.73;47.82;100580.10;1824093;78;21026;-63
2023/04/04 08:57:32;;;;;;;4.92;1.32;;;;;;;8.83;48.41;100576.83;1822772;78;21049;-60
2023/04/04 09:00:04;;;;;;;4.42;1.40;;;;;;;8.53;47.75;100577.61;1821447;77;21001;-61
2023/04/04 09:02:30;;;;;;;2.27;1.25;;;;;;;8.15;47.60;100572.44;1812534;77;21535;-61
2023/04/04 09:05:00;;;;;;;5.83;1.35;;;;;;;7.73;47.63;100567.32;1816499;77;21105;-62
2023/04/04 09:07:27;;;;;;;6.97;1.90;;;;;;;7.27;47.67;100571.32;1812119;77;21096;-61
2023/04/04 09:09:56;;;;;;;3.70;1.52;;;;;;;6.93;47.94;100579.31;1768466;80;21584;-61
2023/04/04 09:12:24;;;;;;;4.92;1.67;;;;;;;6.74;47.94;100575.34;1763534;79;21002;-61
2023/04/04 09:14:52;;;;;;;5.10;1.45;;;;;;;6.88;48.37;100573.80;1767205;80;20951;-61
2023/04/04 09:17:19;;;;;;;3.47;1.55;;;;;;;7.93;49.40;100571.22;1765281;80;22149;-62
2023/04/04 09:19:46;;;;;;;2.72;0.93;;;;;;;9.80;48.23;100550.59;1761813;80;21175;-62
2023/04/04 09:22:23;;;;;;;1.47;0.87;;;;;;;10.91;47.69;100546.06;1764366;79;21584;-62
2023/04/04 09:24:47;;;;;;;2.75;1.40;;;;;;;11.78;48.16;100541.95;1749168;80;22843;-62
2023/04/04 09:27:15;;;;;;;;;;;;;;;13.59;48.35;100531.64;1763617;80;21534;-62
2023/04/04 09:29:41;;;;;;;1.47;0.70;;;;;;;14.06;46.26;100536.39;1762029;80;20260;-62
2023/04/04 09:32:21;;;;;;;1.73;0.73;;;;;;;15.53;47.57;100534.98;1759250;80;21041;-62
2023/04/04 09:34:44;;;;;;;2.25;0.90;;;;;;;16.83;46.31;100531.95;1760126;80;21124;-63
2023/04/04 09:37:16;;;;;;;1.52;0.90;;;;;;;18.01;45.88;100517.50;1762446;80;21099;-62
2023/04/04 09:39:43;;;;;;;3.65;0.90;;;;;;;19.64;47.04;100512.43;1765923;80;21056;-63
2023/04/04 09:42:09;;;;;;;;;;;;;;;21.11;47.20;100508.44;1766490;80;21105;-62
2023/04/04 09:44:40;;;;;;;2.10;0.82;;;;;;;22.62;43.15;100510.31;1766302;80;20401;-62
2023/04/04 09:47:29;;;;;;;2.25;1.00;;;;;;;23.33;44.51;100507.73;1747706;80;21136;-62
2023/04/04 09:49:59;;;;;;;2.08;0.93;;;;;;;23.39;44.71;100516.52;1764299;80;21021;-62
2023/04/04 09:52:26;;;;;;;2.70;0.88;;;;;;;22.49;45.10;100521.17;1764582;80;21073;-62
2023/04/04 09:54:58;;;;;;;2.72;1.60;;;;;;;23.08;45.59;100510.84;1764743;80;21020;-62
2023/04/04 09:57:39;;;;;;;5.28;2.10;;;;;;;22.20;42.60;100509.46;1763480;80;21094;-61
2023/04/04 10:00:06;;;;;;;4.08;2.70;;;;;;;20.37;41.77;100509.78;1759080;80;21630;-61
2023/04/04 10:02:34;;;;;;;4.12;1.67;;;;;;;19.20;42.05;100518.26;1761342;80;21061;-60
2023/04/04 10:05:05;;;;;;;2.70;0.98;;;;;;;20.00;42.15;100513.86;1763115;80;21120;-61
2023/04/04 10:07:38;;;;;;;2.12;0.80;;;;;;;21.25;41.39;100510.01;1743579;80;21059;-62
2023/04/04 10:10:05;;;;;;;1.67;0.75;;;;;;;22.58;42.06;100505.40;1776392;79;21141;-62
2023/04/04 10:12:35;;;;;;;6.92;1.02;;;;;;;23.67;41.12;100502.06;1774055;80;21106;-62
2023/04/04 10:15:08;;;;;;;1.32;0.80;;;;;;;24.31;41.27;100500.22;1767605;80;21050;-61
2023/04/04 10:17:39;;;;;;;3.20;0.90;;;;;;;25.00;41.41;100502.23;1772533;79;20993;-61
2023/04/04 10:20:10;;;;;;;3.35;1.02;;;;;;;24.84;39.59;100502.01;1764496;80;21014;-60
2023/04/04 10:22:37;;;;;;;3.87;1.45;;;;;;;24.82;39.99;100504.00;1758059;80;20968;-60
2023/04/04 10:25:06;;;;;;;17.98;1.82;;;;;;;25.07;40.10;100499.84;1758876;80;21715;-60
2023/04/04 10:27:33;;;;;;;1.42;0.90;;;;;;;26.01;37.21;100489.70;1760749;80;21138;-60
2023/04/04 10:30:00;;;;;;;2.47;0.80;;;;;;;26.73;38.57;100494.96;1758199;80;21035;-60
2023/04/04 10:32:44;;;;;;;2.35;0.88;;;;;;;26.27;36.83;100491.58;1766021;80;21029;-59
2023/04/04 10:35:13;;;;;;;5.08;1.22;;;;;;;25.40;36.74;100490.39;1766103;80;22298;-58
2023/04/04 10:38:04;;;;;;;2.45;1.20;;;;;;;25.77;37.17;100484.12;1766271;80;21552;-59
2023/04/04 10:40:40;;;;;;;2.15;1.30;;;;;;;25.76;36.33;100482.41;1755178;80;21083;-59
2023/04/04 10:43:12;;;;;;;4.97;1.42;;;;;;;23.94;34.09;100489.89;1757396;80;21552;-60
2023/04/04 10:45:41;;;;;;;1.92;0.90;;;;;;;22.89;34.96;100487.13;1779802;79;21024;-60
2023/04/04 10:48:08;;;;;;;2.25;1.02;;;;;;;23.52;35.13;100494.09;1750118;80;21025;-60
2023/04/04 10:50:35;;;;;;;8.68;1.67;;;;;;;24.38;34.47;100487.13;1761384;80;21594;-59
2023/04/04 10:53:03;;;;;;;1.98;0.82;;;;;;;25.43;33.69;100474.05;1764354;80;21987;-59
2023/04/04 10:55:32;;;;;;;2.77;0.80;;;;;;;25.74;33.68;100484.39;1780758;78;21045;-60
2023/04/04 10:58:03;;;;;;;3.02;1.20;;;;;;;25.50;28.66;100468.45;1764381;79;21030;-59
2023/04/04 11:00:37;;;;;;;1.60;0.90;;;;;;;25.61;33.05;100474.92;1740853;80;21086;-61
2023/04/04 11:03:10;;;;;;;3.70;1.67;;;;;;;26.18;32.43;100477.80;1742025;80;21121;-60
2023/04/04 11:05:50;;;;;;;3.65;1.05;;;;;;;26.68;32.63;100475.84;1755342;79;21123;-59
2023/04/04 11:08:23;;;;;;;6.83;1.20;;;;;;;27.08;30.93;100466.31;1769328;79;21542;-62
2023/04/04 11:10:53;;;;;;;5.60;1.10;;;;;;;26.66;29.96;100477.83;1764666;80;22103;-62
2023/04/04 11:13:26;;;;;;;1.15;0.65;;;;;;;24.89;30.44;100479.71;1766440;79;20981;-61
2023/04/04 11:16:06;;;;;;;2.55;0.93;;;;;;;25.01;30.73;100479.86;1767160;80;21033;-61
2023/04/04 11:18:44;;;;;;;1.20;0.80;;;;;;;25.81;30.35;100472.11;1748365;81;21079;-61
2023/04/04 11:21:19;;;;;;;2.08;0.78;;;;;;;26.90;26.55;100459.21;1764686;80;21072;-61
2023/04/04 11:24:03;;;;;;;3.77;1.00;;;;;;;28.02;30.58;100469.27;1762820;80;21746;-61
2023/04/04 11:26:33;;;;;;;4.60;1.85;;;;;;;28.66;29.64;100460.83;1757984;80;21015;-60
2023/04/04 11:29:07;;;;;;;2.65;1.32;;;;;;;28.41;25.18;100461.86;1761304;80;21057;-60
2023/04/04 11:31:45;;;;;;;1.35;0.80;;;;;;;28.32;28.98;100456.50;1762515;80;21042;-61
2023/04/04 11:34:13;;;;;;;4.55;1.52;;;;;;;28.37;27.26;100463.19;1759139;80;21172;-61